sensor_id;sensor_type;location;lat;lon;timestamp;P1;durP1;ratioP1;P2;durP2;ratioP2
16735;SDS011;17990;49.548;9.730;2023-06-19T00:01:13;7.03;;;4.80;;
16735;SDS011;17990;49.548;9.730;2023-06-19T00:03:40;8.87;;;5.30;;
16735;SDS011;17990;49.548;9.730;2023-06-19T00:06:07;6.87;;;5.43;;
16735;SDS011;17990;49.548;9.730;2023-06-19T00:08:34;6.37;;;5.10;;
16735;SDS011;17990;49.548;9.730;2023-06-19T00:11:01;6.40;;;5.10;;
16735;SDS011;17990;49.548;9.730;2023-06-19T00:13:30;6.43;;;5.20;;
16735;SDS011;17990;49.548;9.730;2023-06-19T00:15:58;8.33;;;5.27;;
16735;SDS011;17990;49.548;9.730;2023-06-19T00:18:26;5.33;;;4.83;;
16735;SDS011;17990;49.548;9.730;2023-06-19T00:20:53;6.07;;;5.13;;
16735;SDS011;17990;49.548;9.730;2023-06-19T00:23:21;8.70;;;5.10;;
16735;SDS011;17990;49.548;9.730;2023-06-19T00:25:48;8.03;;;5.13;;
16735;SDS011;17990;49.548;9.730;2023-06-19T00:28:15;5.87;;;5.23;;
16735;SDS011;17990;49.548;9.730;2023-06-19T00:30:46;8.00;;;5.20;;
16735;SDS011;17990;49.548;9.730;2023-06-19T00:33:13;7.00;;;4.73;;
16735;SDS011;17990;49.548;9.730;2023-06-19T00:35:39;6.07;;;5.20;;
16735;SDS011;17990;49.548;9.730;2023-06-19T00:38:07;7.33;;;5.00;;
16735;SDS011;17990;49.548;9.730;2023-06-19T00:40:34;5.43;;;4.93;;
16735;SDS011;17990;49.548;9.730;2023-06-19T00:43:01;7.13;;;5.23;;
16735;SDS011;17990;49.548;9.730;2023-06-19T00:45:28;6.80;;;5.43;;
16735;SDS011;17990;49.548;9.730;2023-06-19T00:47:57;7.33;;;5.23;;
16735;SDS011;17990;49.548;9.730;2023-06-19T00:50:25;5.97;;;5.03;;
16735;SDS011;17990;49.548;9.730;2023-06-19T00:52:55;7.07;;;5.03;;
16735;SDS011;17990;49.548;9.730;2023-06-19T00:55:22;5.87;;;5.27;;
16735;SDS011;17990;49.548;9.730;2023-06-19T00:57:52;6.13;;;5.53;;
16735;SDS011;17990;49.548;9.730;2023-06-19T01:00:19;5.80;;;5.00;;
16735;SDS011;17990;49.548;9.730;2023-06-19T01:02:47;6.10;;;5.50;;
16735;SDS011;17990;49.548;9.730;2023-06-19T01:05:15;8.77;;;5.50;;
16735;SDS011;17990;49.548;9.730;2023-06-19T01:07:44;7.63;;;5.53;;
16735;SDS011;17990;49.548;9.730;2023-06-19T01:10:16;5.73;;;5.13;;
16735;SDS011;17990;49.548;9.730;2023-06-19T01:12:54;8.50;;;5.33;;
16735;SDS011;17990;49.548;9.730;2023-06-19T01:15:26;6.63;;;5.50;;
16735;SDS011;17990;49.548;9.730;2023-06-19T01:17:53;6.47;;;5.80;;
16735;SDS011;17990;49.548;9.730;2023-06-19T01:20:22;7.87;;;5.50;;
16735;SDS011;17990;49.548;9.730;2023-06-19T01:22:52;6.20;;;5.60;;
16735;SDS011;17990;49.548;9.730;2023-06-19T01:25:21;6.53;;;5.93;;
16735;SDS011;17990;49.548;9.730;2023-06-19T01:27:49;8.20;;;5.53;;
16735;SDS011;17990;49.548;9.730;2023-06-19T01:30:16;7.00;;;6.30;;
16735;SDS011;17990;49.548;9.730;2023-06-19T01:32:46;6.83;;;5.53;;
16735;SDS011;17990;49.548;9.730;2023-06-19T01:35:17;6.80;;;5.43;;
16735;SDS011;17990;49.548;9.730;2023-06-19T01:37:49;6.90;;;5.67;;
16735;SDS011;17990;49.548;9.730;2023-06-19T01:40:20;9.07;;;5.93;;
16735;SDS011;17990;49.548;9.730;2023-06-19T01:42:51;7.50;;;6.00;;
16735;SDS011;17990;49.548;9.730;2023-06-19T01:45:19;6.70;;;6.00;;
16735;SDS011;17990;49.548;9.730;2023-06-19T01:47:46;6.30;;;5.70;;
16735;SDS011;17990;49.548;9.730;2023-06-19T01:50:13;7.00;;;5.40;;
16735;SDS011;17990;49.548;9.730;2023-06-19T01:52:41;7.97;;;6.30;;
16735;SDS011;17990;49.548;9.730;2023-06-19T01:55:09;7.83;;;5.67;;
16735;SDS011;17990;49.548;9.730;2023-06-19T01:57:36;9.30;;;6.30;;
16735;SDS011;17990;49.548;9.730;2023-06-19T02:00:03;7.63;;;6.07;;
16735;SDS011;17990;49.548;9.730;2023-06-19T02:02:32;7.13;;;6.33;;
16735;SDS011;17990;49.548;9.730;2023-06-19T02:04:59;7.43;;;5.97;;
16735;SDS011;17990;49.548;9.730;2023-06-19T02:07:26;7.30;;;5.80;;
16735;SDS011;17990;49.548;9.730;2023-06-19T02:09:53;7.77;;;6.23;;
16735;SDS011;17990;49.548;9.730;2023-06-19T02:12:21;7.67;;;6.37;;
16735;SDS011;17990;49.548;9.730;2023-06-19T02:14:48;8.20;;;5.90;;
16735;SDS011;17990;49.548;9.730;2023-06-19T02:17:15;8.00;;;6.03;;
16735;SDS011;17990;49.548;9.730;2023-06-19T02:19:42;6.87;;;5.93;;
16735;SDS011;17990;49.548;9.730;2023-06-19T02:22:08;7.87;;;5.93;;
16735;SDS011;17990;49.548;9.730;2023-06-19T02:24:35;8.47;;;6.07;;
16735;SDS011;17990;49.548;9.730;2023-06-19T02:27:04;9.23;;;6.40;;
16735;SDS011;17990;49.548;9.730;2023-06-19T02:29:33;8.20;;;6.03;;
16735;SDS011;17990;49.548;9.730;2023-06-19T02:32:00;7.67;;;5.87;;
16735;SDS011;17990;49.548;9.730;2023-06-19T02:34:27;10.17;;;6.10;;
16735;SDS011;17990;49.548;9.730;2023-06-19T02:36:54;9.37;;;6.10;;
16735;SDS011;17990;49.548;9.730;2023-06-19T02:39:21;8.10;;;6.50;;
16735;SDS011;17990;49.548;9.730;2023-06-19T02:41:48;15.43;;;6.50;;
16735;SDS011;17990;49.548;9.730;2023-06-19T02:44:15;9.33;;;6.30;;
16735;SDS011;17990;49.548;9.730;2023-06-19T02:46:43;10.20;;;5.97;;
16735;SDS011;17990;49.548;9.730;2023-06-19T02:49:10;8.23;;;6.63;;
16735;SDS011;17990;49.548;9.730;2023-06-19T02:51:37;24.80;;;13.43;;
16735;SDS011;17990;49.548;9.730;2023-06-19T02:54:03;34.40;;;16.73;;
16735;SDS011;17990;49.548;9.730;2023-06-19T02:56:31;25.07;;;12.17;;
16735;SDS011;17990;49.548;9.730;2023-06-19T02:58:58;22.13;;;11.20;;
16735;SDS011;17990;49.548;9.730;2023-06-19T03:01:25;18.23;;;9.70;;
16735;SDS011;17990;49.548;9.730;2023-06-19T03:03:53;10.70;;;6.63;;
16735;SDS011;17990;49.548;9.730;2023-06-19T03:06:20;6.97;;;6.13;;
16735;SDS011;17990;49.548;9.730;2023-06-19T03:08:47;6.73;;;5.77;;
16735;SDS011;17990;49.548;9.730;2023-06-19T03:11:14;9.17;;;6.33;;
16735;SDS011;17990;49.548;9.730;2023-06-19T03:13:44;6.63;;;5.63;;
16735;SDS011;17990;49.548;9.730;2023-06-19T03:16:13;8.27;;;5.70;;
16735;SDS011;17990;49.548;9.730;2023-06-19T03:18:41;8.67;;;5.50;;
16735;SDS011;17990;49.548;9.730;2023-06-19T03:21:11;7.53;;;5.57;;
16735;SDS011;17990;49.548;9.730;2023-06-19T03:23:38;7.17;;;5.20;;
16735;SDS011;17990;49.548;9.730;2023-06-19T03:26:06;6.60;;;5.00;;
16735;SDS011;17990;49.548;9.730;2023-06-19T03:28:33;9.27;;;5.80;;
16735;SDS011;17990;49.548;9.730;2023-06-19T03:31:00;5.87;;;5.37;;
16735;SDS011;17990;49.548;9.730;2023-06-19T03:33:26;10.30;;;5.70;;
16735;SDS011;17990;49.548;9.730;2023-06-19T03:35:53;12.60;;;5.53;;
16735;SDS011;17990;49.548;9.730;2023-06-19T03:38:22;9.20;;;5.20;;
16735;SDS011;17990;49.548;9.730;2023-06-19T03:40:49;7.17;;;5.10;;
16735;SDS011;17990;49.548;9.730;2023-06-19T03:43:16;6.90;;;4.93;;
16735;SDS011;17990;49.548;9.730;2023-06-19T03:45:42;7.60;;;4.90;;
16735;SDS011;17990;49.548;9.730;2023-06-19T03:48:09;6.73;;;4.60;;
16735;SDS011;17990;49.548;9.730;2023-06-19T03:50:36;10.40;;;5.00;;
16735;SDS011;17990;49.548;9.730;2023-06-19T03:53:03;5.47;;;4.73;;
16735;SDS011;17990;49.548;9.730;2023-06-19T03:55:31;7.77;;;4.87;;
16735;SDS011;17990;49.548;9.730;2023-06-19T03:57:58;6.97;;;4.70;;
16735;SDS011;17990;49.548;9.730;2023-06-19T04:00:25;9.47;;;4.80;;
16735;SDS011;17990;49.548;9.730;2023-06-19T04:02:58;8.43;;;5.17;;
16735;SDS011;17990;49.548;9.730;2023-06-19T04:05:26;6.70;;;4.50;;
16735;SDS011;17990;49.548;9.730;2023-06-19T04:07:56;10.03;;;5.17;;
16735;SDS011;17990;49.548;9.730;2023-06-19T04:10:23;9.03;;;4.23;;
16735;SDS011;17990;49.548;9.730;2023-06-19T04:12:51;5.70;;;4.80;;
16735;SDS011;17990;49.548;9.730;2023-06-19T04:15:20;7.37;;;5.33;;
16735;SDS011;17990;49.548;9.730;2023-06-19T04:17:47;6.37;;;5.20;;
16735;SDS011;17990;49.548;9.730;2023-06-19T04:20:14;8.53;;;4.60;;
16735;SDS011;17990;49.548;9.730;2023-06-19T04:22:41;5.00;;;4.37;;
16735;SDS011;17990;49.548;9.730;2023-06-19T04:25:08;7.00;;;4.47;;
16735;SDS011;17990;49.548;9.730;2023-06-19T04:27:36;7.05;;;4.70;;
16735;SDS011;17990;49.548;9.730;2023-06-19T04:30:05;8.10;;;5.27;;
16735;SDS011;17990;49.548;9.730;2023-06-19T04:32:33;10.18;;;5.57;;
16735;SDS011;17990;49.548;9.730;2023-06-19T04:35:00;8.88;;;4.95;;
16735;SDS011;17990;49.548;9.730;2023-06-19T04:37:27;10.35;;;5.00;;
16735;SDS011;17990;49.548;9.730;2023-06-19T04:39:54;6.50;;;5.10;;
16735;SDS011;17990;49.548;9.730;2023-06-19T04:42:21;11.35;;;8.05;;
16735;SDS011;17990;49.548;9.730;2023-06-19T04:44:48;7.45;;;4.72;;
16735;SDS011;17990;49.548;9.730;2023-06-19T04:47:19;6.05;;;4.22;;
16735;SDS011;17990;49.548;9.730;2023-06-19T04:49:48;9.38;;;5.00;;
16735;SDS011;17990;49.548;9.730;2023-06-19T04:52:15;4.95;;;3.95;;
16735;SDS011;17990;49.548;9.730;2023-06-19T04:54:43;6.22;;;3.92;;
16735;SDS011;17990;49.548;9.730;2023-06-19T04:57:10;6.85;;;4.13;;
16735;SDS011;17990;49.548;9.730;2023-06-19T04:59:37;4.82;;;3.92;;
16735;SDS011;17990;49.548;9.730;2023-06-19T05:02:04;5.55;;;3.67;;
16735;SDS011;17990;49.548;9.730;2023-06-19T05:04:33;4.25;;;3.75;;
16735;SDS011;17990;49.548;9.730;2023-06-19T05:07:01;8.43;;;3.47;;
16735;SDS011;17990;49.548;9.730;2023-06-19T05:09:28;5.45;;;3.63;;
16735;SDS011;17990;49.548;9.730;2023-06-19T05:11:56;3.85;;;3.17;;
16735;SDS011;17990;49.548;9.730;2023-06-19T05:14:23;3.90;;;3.17;;
16735;SDS011;17990;49.548;9.730;2023-06-19T05:16:50;5.35;;;3.47;;
16735;SDS011;17990;49.548;9.730;2023-06-19T05:19:17;27.20;;;4.80;;
16735;SDS011;17990;49.548;9.730;2023-06-19T05:21:45;5.93;;;3.38;;
16735;SDS011;17990;49.548;9.730;2023-06-19T05:24:12;5.47;;;2.90;;
16735;SDS011;17990;49.548;9.730;2023-06-19T05:26:39;4.10;;;3.00;;
16735;SDS011;17990;49.548;9.730;2023-06-19T05:29:06;3.95;;;2.88;;
16735;SDS011;17990;49.548;9.730;2023-06-19T05:31:33;4.63;;;3.05;;
16735;SDS011;17990;49.548;9.730;2023-06-19T05:34:00;2.72;;;2.50;;
16735;SDS011;17990;49.548;9.730;2023-06-19T05:36:27;3.88;;;2.42;;
16735;SDS011;17990;49.548;9.730;2023-06-19T05:38:55;2.63;;;2.42;;
16735;SDS011;17990;49.548;9.730;2023-06-19T05:41:22;2.50;;;2.30;;
16735;SDS011;17990;49.548;9.730;2023-06-19T05:43:49;4.82;;;2.67;;
16735;SDS011;17990;49.548;9.730;2023-06-19T05:46:16;5.53;;;2.47;;
16735;SDS011;17990;49.548;9.730;2023-06-19T05:48:43;3.67;;;2.50;;
16735;SDS011;17990;49.548;9.730;2023-06-19T05:51:09;2.50;;;2.30;;
16735;SDS011;17990;49.548;9.730;2023-06-19T05:53:36;4.32;;;2.10;;
16735;SDS011;17990;49.548;9.730;2023-06-19T05:56:05;3.05;;;2.20;;
16735;SDS011;17990;49.548;9.730;2023-06-19T05:58:32;3.45;;;2.08;;
16735;SDS011;17990;49.548;9.730;2023-06-19T06:00:59;2.53;;;2.00;;
16735;SDS011;17990;49.548;9.730;2023-06-19T06:03:26;2.40;;;2.15;;
16735;SDS011;17990;49.548;9.730;2023-06-19T06:05:52;2.70;;;2.38;;
16735;SDS011;17990;49.548;9.730;2023-06-19T06:08:19;2.70;;;1.90;;
16735;SDS011;17990;49.548;9.730;2023-06-19T06:10:46;4.90;;;2.40;;
16735;SDS011;17990;49.548;9.730;2023-06-19T06:13:14;3.38;;;2.33;;
16735;SDS011;17990;49.548;9.730;2023-06-19T06:15:41;2.13;;;1.92;;
16735;SDS011;17990;49.548;9.730;2023-06-19T06:18:08;4.78;;;2.42;;
16735;SDS011;17990;49.548;9.730;2023-06-19T06:20:35;3.67;;;2.17;;
16735;SDS011;17990;49.548;9.730;2023-06-19T06:23:02;3.05;;;1.88;;
16735;SDS011;17990;49.548;9.730;2023-06-19T06:25:28;3.42;;;1.98;;
16735;SDS011;17990;49.548;9.730;2023-06-19T06:27:55;2.95;;;1.98;;
16735;SDS011;17990;49.548;9.730;2023-06-19T06:30:23;2.30;;;1.88;;
16735;SDS011;17990;49.548;9.730;2023-06-19T06:32:52;2.40;;;1.80;;
16735;SDS011;17990;49.548;9.730;2023-06-19T06:35:19;2.17;;;1.92;;
16735;SDS011;17990;49.548;9.730;2023-06-19T06:37:46;3.10;;;2.17;;
16735;SDS011;17990;49.548;9.730;2023-06-19T06:40:15;4.05;;;2.10;;
16735;SDS011;17990;49.548;9.730;2023-06-19T06:42:42;3.88;;;2.63;;
16735;SDS011;17990;49.548;9.730;2023-06-19T06:45:09;3.10;;;2.33;;
16735;SDS011;17990;49.548;9.730;2023-06-19T06:47:37;2.15;;;1.95;;
16735;SDS011;17990;49.548;9.730;2023-06-19T06:50:06;2.70;;;2.15;;
16735;SDS011;17990;49.548;9.730;2023-06-19T06:52:34;2.53;;;2.10;;
16735;SDS011;17990;49.548;9.730;2023-06-19T06:55:01;2.42;;;2.20;;
16735;SDS011;17990;49.548;9.730;2023-06-19T06:57:28;3.40;;;2.13;;
16735;SDS011;17990;49.548;9.730;2023-06-19T06:59:55;2.53;;;2.10;;
16735;SDS011;17990;49.548;9.730;2023-06-19T07:02:22;4.50;;;2.00;;
16735;SDS011;17990;49.548;9.730;2023-06-19T07:04:50;4.47;;;2.08;;
16735;SDS011;17990;49.548;9.730;2023-06-19T07:07:17;3.13;;;1.85;;
16735;SDS011;17990;49.548;9.730;2023-06-19T07:09:44;3.80;;;2.05;;
16735;SDS011;17990;49.548;9.730;2023-06-19T07:12:11;3.10;;;2.00;;
16735;SDS011;17990;49.548;9.730;2023-06-19T07:14:38;4.75;;;2.20;;
16735;SDS011;17990;49.548;9.730;2023-06-19T07:17:04;2.33;;;2.13;;
16735;SDS011;17990;49.548;9.730;2023-06-19T07:19:32;17.90;;;3.28;;
16735;SDS011;17990;49.548;9.730;2023-06-19T07:22:00;5.25;;;2.10;;
16735;SDS011;17990;49.548;9.730;2023-06-19T07:24:27;2.40;;;1.88;;
16735;SDS011;17990;49.548;9.730;2023-06-19T07:26:54;2.33;;;2.05;;
16735;SDS011;17990;49.548;9.730;2023-06-19T07:29:21;14.00;;;2.00;;
16735;SDS011;17990;49.548;9.730;2023-06-19T07:31:50;4.05;;;2.40;;
16735;SDS011;17990;49.548;9.730;2023-06-19T07:34:17;6.30;;;2.20;;
16735;SDS011;17990;49.548;9.730;2023-06-19T07:36:44;3.47;;;2.10;;
16735;SDS011;17990;49.548;9.730;2023-06-19T07:39:12;3.55;;;2.10;;
16735;SDS011;17990;49.548;9.730;2023-06-19T07:41:39;2.88;;;2.03;;
16735;SDS011;17990;49.548;9.730;2023-06-19T07:44:06;3.17;;;2.10;;
16735;SDS011;17990;49.548;9.730;2023-06-19T07:46:33;2.50;;;2.05;;
16735;SDS011;17990;49.548;9.730;2023-06-19T07:49:00;5.28;;;2.60;;
16735;SDS011;17990;49.548;9.730;2023-06-19T07:51:26;3.33;;;2.53;;
16735;SDS011;17990;49.548;9.730;2023-06-19T07:53:53;3.55;;;2.38;;
16735;SDS011;17990;49.548;9.730;2023-06-19T07:56:21;2.90;;;2.63;;
16735;SDS011;17990;49.548;9.730;2023-06-19T07:58:48;5.57;;;2.55;;
16735;SDS011;17990;49.548;9.730;2023-06-19T08:01:15;4.10;;;2.55;;
16735;SDS011;17990;49.548;9.730;2023-06-19T08:03:42;2.92;;;2.50;;
16735;SDS011;17990;49.548;9.730;2023-06-19T08:06:09;3.03;;;2.20;;
16735;SDS011;17990;49.548;9.730;2023-06-19T08:08:35;2.50;;;2.30;;
16735;SDS011;17990;49.548;9.730;2023-06-19T08:11:02;3.45;;;2.80;;
16735;SDS011;17990;49.548;9.730;2023-06-19T08:13:30;2.60;;;2.40;;
16735;SDS011;17990;49.548;9.730;2023-06-19T08:16:00;4.03;;;2.78;;
16735;SDS011;17990;49.548;9.730;2023-06-19T08:18:27;2.90;;;2.70;;
16735;SDS011;17990;49.548;9.730;2023-06-19T08:20:54;5.40;;;2.92;;
16735;SDS011;17990;49.548;9.730;2023-06-19T08:23:20;4.25;;;2.55;;
16735;SDS011;17990;49.548;9.730;2023-06-19T08:25:47;4.00;;;3.08;;
16735;SDS011;17990;49.548;9.730;2023-06-19T08:28:16;3.22;;;2.63;;
16735;SDS011;17990;49.548;9.730;2023-06-19T08:30:45;3.30;;;3.00;;
16735;SDS011;17990;49.548;9.730;2023-06-19T08:33:12;3.70;;;2.67;;
16735;SDS011;17990;49.548;9.730;2023-06-19T08:35:39;5.57;;;3.00;;
16735;SDS011;17990;49.548;9.730;2023-06-19T08:38:06;6.95;;;3.08;;
16735;SDS011;17990;49.548;9.730;2023-06-19T08:40:33;3.17;;;2.88;;
16735;SDS011;17990;49.548;9.730;2023-06-19T08:43:00;3.30;;;3.00;;
16735;SDS011;17990;49.548;9.730;2023-06-19T08:45:27;6.40;;;3.03;;
16735;SDS011;17990;49.548;9.730;2023-06-19T08:47:58;3.38;;;3.00;;
16735;SDS011;17990;49.548;9.730;2023-06-19T08:50:28;3.58;;;3.03;;
16735;SDS011;17990;49.548;9.730;2023-06-19T08:52:55;4.20;;;3.53;;
16735;SDS011;17990;49.548;9.730;2023-06-19T08:55:22;3.65;;;3.00;;
16735;SDS011;17990;49.548;9.730;2023-06-19T08:57:50;3.60;;;3.13;;
16735;SDS011;17990;49.548;9.730;2023-06-19T09:00:22;4.20;;;2.53;;
16735;SDS011;17990;49.548;9.730;2023-06-19T09:02:50;3.20;;;3.00;;
16735;SDS011;17990;49.548;9.730;2023-06-19T09:05:19;2.90;;;2.60;;
16735;SDS011;17990;49.548;9.730;2023-06-19T09:07:54;4.43;;;3.03;;
16735;SDS011;17990;49.548;9.730;2023-06-19T09:10:23;3.42;;;2.80;;
16735;SDS011;17990;49.548;9.730;2023-06-19T09:12:57;4.20;;;2.78;;
16735;SDS011;17990;49.548;9.730;2023-06-19T09:15:27;3.72;;;2.92;;
16735;SDS011;17990;49.548;9.730;2023-06-19T09:18:02;3.75;;;3.38;;
16735;SDS011;17990;49.548;9.730;2023-06-19T09:20:31;5.45;;;2.80;;
16735;SDS011;17990;49.548;9.730;2023-06-19T09:22:59;5.20;;;3.20;;
16735;SDS011;17990;49.548;9.730;2023-06-19T09:25:26;3.58;;;3.17;;
16735;SDS011;17990;49.548;9.730;2023-06-19T09:27:53;3.53;;;2.92;;
16735;SDS011;17990;49.548;9.730;2023-06-19T09:30:20;3.20;;;2.90;;
16735;SDS011;17990;49.548;9.730;2023-06-19T09:32:47;4.47;;;3.10;;
16735;SDS011;17990;49.548;9.730;2023-06-19T09:35:14;4.72;;;3.30;;
16735;SDS011;17990;49.548;9.730;2023-06-19T09:37:43;4.15;;;3.13;;
16735;SDS011;17990;49.548;9.730;2023-06-19T09:40:12;4.15;;;3.30;;
16735;SDS011;17990;49.548;9.730;2023-06-19T09:42:39;5.68;;;3.42;;
16735;SDS011;17990;49.548;9.730;2023-06-19T09:45:08;5.60;;;3.55;;
16735;SDS011;17990;49.548;9.730;2023-06-19T09:47:38;4.65;;;3.60;;
16735;SDS011;17990;49.548;9.730;2023-06-19T09:50:06;4.90;;;3.22;;
16735;SDS011;17990;49.548;9.730;2023-06-19T09:52:34;9.43;;;3.63;;
16735;SDS011;17990;49.548;9.730;2023-06-19T09:55:03;5.75;;;3.45;;
16735;SDS011;17990;49.548;9.730;2023-06-19T09:57:34;5.10;;;3.20;;
16735;SDS011;17990;49.548;9.730;2023-06-19T10:00:03;6.50;;;3.40;;
16735;SDS011;17990;49.548;9.730;2023-06-19T10:02:37;3.80;;;3.08;;
16735;SDS011;17990;49.548;9.730;2023-06-19T10:05:05;6.13;;;3.72;;
16735;SDS011;17990;49.548;9.730;2023-06-19T10:07:36;5.03;;;4.63;;
16735;SDS011;17990;49.548;9.730;2023-06-19T10:10:07;4.35;;;3.75;;
16735;SDS011;17990;49.548;9.730;2023-06-19T10:12:38;3.83;;;3.50;;
16735;SDS011;17990;49.548;9.730;2023-06-19T10:15:10;5.18;;;4.00;;
16735;SDS011;17990;49.548;9.730;2023-06-19T10:17:42;4.10;;;3.72;;
16735;SDS011;17990;49.548;9.730;2023-06-19T10:23:04;5.13;;;3.85;;
16735;SDS011;17990;49.548;9.730;2023-06-19T10:25:35;5.13;;;3.60;;
16735;SDS011;17990;49.548;9.730;2023-06-19T10:28:04;4.07;;;3.70;;
16735;SDS011;17990;49.548;9.730;2023-06-19T10:30:42;4.20;;;3.72;;
16735;SDS011;17990;49.548;9.730;2023-06-19T10:33:09;3.75;;;3.45;;
16735;SDS011;17990;49.548;9.730;2023-06-19T10:35:39;6.75;;;4.57;;
16735;SDS011;17990;49.548;9.730;2023-06-19T10:38:06;6.38;;;4.13;;
16735;SDS011;17990;49.548;9.730;2023-06-19T10:40:36;5.50;;;3.58;;
16735;SDS011;17990;49.548;9.730;2023-06-19T10:43:03;5.03;;;3.78;;
16735;SDS011;17990;49.548;9.730;2023-06-19T10:45:30;5.18;;;3.90;;
16735;SDS011;17990;49.548;9.730;2023-06-19T10:48:00;4.45;;;3.75;;
16735;SDS011;17990;49.548;9.730;2023-06-19T10:50:28;5.03;;;3.75;;
16735;SDS011;17990;49.548;9.730;2023-06-19T10:52:55;4.35;;;3.95;;
16735;SDS011;17990;49.548;9.730;2023-06-19T10:55:22;4.50;;;3.80;;
16735;SDS011;17990;49.548;9.730;2023-06-19T10:57:50;5.55;;;3.63;;
16735;SDS011;17990;49.548;9.730;2023-06-19T11:00:24;5.43;;;3.53;;
16735;SDS011;17990;49.548;9.730;2023-06-19T11:02:54;4.88;;;3.58;;
16735;SDS011;17990;49.548;9.730;2023-06-19T11:05:22;4.10;;;3.75;;
16735;SDS011;17990;49.548;9.730;2023-06-19T11:07:50;4.53;;;3.38;;
16735;SDS011;17990;49.548;9.730;2023-06-19T11:10:19;4.63;;;3.78;;
16735;SDS011;17990;49.548;9.730;2023-06-19T11:12:47;3.80;;;3.33;;
16735;SDS011;17990;49.548;9.730;2023-06-19T11:15:16;4.63;;;3.50;;
16735;SDS011;17990;49.548;9.730;2023-06-19T11:17:43;4.57;;;3.25;;
16735;SDS011;17990;49.548;9.730;2023-06-19T11:20:10;5.63;;;3.63;;
16735;SDS011;17990;49.548;9.730;2023-06-19T11:22:39;4.82;;;3.40;;
16735;SDS011;17990;49.548;9.730;2023-06-19T11:25:07;3.70;;;3.40;;
16735;SDS011;17990;49.548;9.730;2023-06-19T11:27:39;6.38;;;3.85;;
16735;SDS011;17990;49.548;9.730;2023-06-19T11:30:06;3.90;;;3.60;;
16735;SDS011;17990;49.548;9.730;2023-06-19T11:32:36;7.13;;;3.60;;
16735;SDS011;17990;49.548;9.730;2023-06-19T11:35:08;4.57;;;3.72;;
16735;SDS011;17990;49.548;9.730;2023-06-19T11:37:39;5.95;;;3.78;;
16735;SDS011;17990;49.548;9.730;2023-06-19T11:40:07;3.53;;;3.15;;
16735;SDS011;17990;49.548;9.730;2023-06-19T11:42:51;4.18;;;3.10;;
16735;SDS011;17990;49.548;9.730;2023-06-19T11:45:19;3.88;;;3.53;;
16735;SDS011;17990;49.548;9.730;2023-06-19T11:47:49;3.70;;;3.40;;
16735;SDS011;17990;49.548;9.730;2023-06-19T11:50:16;5.65;;;3.95;;
16735;SDS011;17990;49.548;9.730;2023-06-19T11:52:44;4.93;;;3.13;;
16735;SDS011;17990;49.548;9.730;2023-06-19T11:55:12;4.20;;;3.70;;
16735;SDS011;17990;49.548;9.730;2023-06-19T11:57:40;7.15;;;4.70;;
16735;SDS011;17990;49.548;9.730;2023-06-19T12:00:15;7.32;;;3.88;;
16735;SDS011;17990;49.548;9.730;2023-06-19T12:02:43;4.95;;;3.70;;
16735;SDS011;17990;49.548;9.730;2023-06-19T12:05:13;3.83;;;3.45;;
16735;SDS011;17990;49.548;9.730;2023-06-19T12:07:40;3.78;;;3.47;;
16735;SDS011;17990;49.548;9.730;2023-06-19T12:10:08;5.57;;;3.88;;
16735;SDS011;17990;49.548;9.730;2023-06-19T12:12:37;6.50;;;5.88;;
16735;SDS011;17990;49.548;9.730;2023-06-19T12:15:04;5.13;;;3.72;;
16735;SDS011;17990;49.548;9.730;2023-06-19T12:17:33;3.78;;;3.47;;
16735;SDS011;17990;49.548;9.730;2023-06-19T12:20:00;4.88;;;3.75;;
16735;SDS011;17990;49.548;9.730;2023-06-19T12:22:31;5.00;;;3.60;;
16735;SDS011;17990;49.548;9.730;2023-06-19T12:24:59;3.92;;;3.53;;
16735;SDS011;17990;49.548;9.730;2023-06-19T12:27:26;3.67;;;3.38;;
16735;SDS011;17990;49.548;9.730;2023-06-19T12:29:53;3.83;;;3.22;;
16735;SDS011;17990;49.548;9.730;2023-06-19T12:32:20;3.58;;;3.28;;
16735;SDS011;17990;49.548;9.730;2023-06-19T12:34:47;3.45;;;3.10;;
16735;SDS011;17990;49.548;9.730;2023-06-19T12:37:14;3.28;;;3.00;;
16735;SDS011;17990;49.548;9.730;2023-06-19T12:39:43;4.43;;;3.30;;
16735;SDS011;17990;49.548;9.730;2023-06-19T12:42:10;6.55;;;3.22;;
16735;SDS011;17990;49.548;9.730;2023-06-19T12:44:38;6.28;;;3.25;;
16735;SDS011;17990;49.548;9.730;2023-06-19T12:47:06;3.50;;;3.20;;
16735;SDS011;17990;49.548;9.730;2023-06-19T12:49:34;3.95;;;2.85;;
16735;SDS011;17990;49.548;9.730;2023-06-19T12:52:01;3.50;;;3.20;;
16735;SDS011;17990;49.548;9.730;2023-06-19T12:54:28;6.20;;;3.13;;
16735;SDS011;17990;49.548;9.730;2023-06-19T12:56:56;3.58;;;3.28;;
16735;SDS011;17990;49.548;9.730;2023-06-19T12:59:23;6.28;;;3.30;;
16735;SDS011;17990;49.548;9.730;2023-06-19T13:01:50;3.75;;;3.20;;
16735;SDS011;17990;49.548;9.730;2023-06-19T13:04:17;4.22;;;2.88;;
16735;SDS011;17990;49.548;9.730;2023-06-19T13:06:44;3.50;;;3.20;;
16735;SDS011;17990;49.548;9.730;2023-06-19T13:09:11;3.17;;;2.88;;
16735;SDS011;17990;49.548;9.730;2023-06-19T13:11:38;6.50;;;3.92;;
16735;SDS011;17990;49.548;9.730;2023-06-19T13:14:06;4.88;;;3.50;;
16735;SDS011;17990;49.548;9.730;2023-06-19T13:16:33;4.75;;;2.83;;
16735;SDS011;17990;49.548;9.730;2023-06-19T13:19:00;7.65;;;3.17;;
16735;SDS011;17990;49.548;9.730;2023-06-19T13:21:27;3.55;;;3.08;;
16735;SDS011;17990;49.548;9.730;2023-06-19T13:23:54;3.17;;;2.80;;
16735;SDS011;17990;49.548;9.730;2023-06-19T13:26:20;3.70;;;2.92;;
16735;SDS011;17990;49.548;9.730;2023-06-19T13:28:47;3.45;;;3.15;;
16735;SDS011;17990;49.548;9.730;2023-06-19T13:31:16;3.10;;;2.65;;
16735;SDS011;17990;49.548;9.730;2023-06-19T13:33:43;5.30;;;3.10;;
16735;SDS011;17990;49.548;9.730;2023-06-19T13:36:09;3.40;;;3.10;;
16735;SDS011;17990;49.548;9.730;2023-06-19T13:38:36;3.53;;;3.00;;
16735;SDS011;17990;49.548;9.730;2023-06-19T13:41:03;3.35;;;2.63;;
16735;SDS011;17990;49.548;9.730;2023-06-19T13:43:31;2.70;;;2.50;;
16735;SDS011;17990;49.548;9.730;2023-06-19T13:45:58;7.32;;;3.20;;
16735;SDS011;17990;49.548;9.730;2023-06-19T13:48:27;4.05;;;3.28;;
16735;SDS011;17990;49.548;9.730;2023-06-19T13:50:54;3.35;;;2.83;;
16735;SDS011;17990;49.548;9.730;2023-06-19T13:53:22;5.18;;;3.20;;
16735;SDS011;17990;49.548;9.730;2023-06-19T13:55:49;3.30;;;3.00;;
16735;SDS011;17990;49.548;9.730;2023-06-19T13:58:16;3.55;;;3.00;;
16735;SDS011;17990;49.548;9.730;2023-06-19T14:00:43;5.15;;;2.70;;
16735;SDS011;17990;49.548;9.730;2023-06-19T14:03:09;4.68;;;2.85;;
16735;SDS011;17990;49.548;9.730;2023-06-19T14:05:38;3.15;;;2.53;;
16735;SDS011;17990;49.548;9.730;2023-06-19T14:08:04;3.47;;;2.10;;
16735;SDS011;17990;49.548;9.730;2023-06-19T14:10:31;2.58;;;2.35;;
16735;SDS011;17990;49.548;9.730;2023-06-19T14:12:58;2.72;;;2.47;;
16735;SDS011;17990;49.548;9.730;2023-06-19T14:15:25;3.05;;;2.50;;
16735;SDS011;17990;49.548;9.730;2023-06-19T14:17:52;3.83;;;2.50;;
16735;SDS011;17990;49.548;9.730;2023-06-19T14:20:19;2.75;;;2.47;;
16735;SDS011;17990;49.548;9.730;2023-06-19T14:22:47;6.63;;;2.60;;
16735;SDS011;17990;49.548;9.730;2023-06-19T14:25:14;4.22;;;2.20;;
16735;SDS011;17990;49.548;9.730;2023-06-19T14:27:41;2.97;;;2.10;;
16735;SDS011;17990;49.548;9.730;2023-06-19T14:30:08;2.50;;;2.30;;
16735;SDS011;17990;49.548;9.730;2023-06-19T14:32:35;2.80;;;2.15;;
16735;SDS011;17990;49.548;9.730;2023-06-19T14:35:02;5.18;;;2.22;;
16735;SDS011;17990;49.548;9.730;2023-06-19T14:37:30;3.25;;;2.45;;
16735;SDS011;17990;49.548;9.730;2023-06-19T14:39:59;2.97;;;2.50;;
16735;SDS011;17990;49.548;9.730;2023-06-19T14:42:25;3.63;;;2.67;;
16735;SDS011;17990;49.548;9.730;2023-06-19T14:44:52;2.30;;;2.10;;
16735;SDS011;17990;49.548;9.730;2023-06-19T14:47:19;2.90;;;2.60;;
16735;SDS011;17990;49.548;9.730;2023-06-19T14:49:46;3.67;;;2.45;;
16735;SDS011;17990;49.548;9.730;2023-06-19T14:52:13;2.70;;;2.50;;
16735;SDS011;17990;49.548;9.730;2023-06-19T14:54:41;4.10;;;2.20;;